Accueil
METAR-TAF:

METAR-TAF

Aéroports :

Florennes, Belgique

Base aérienne de Florennes

latitude: 50-14N, longitude: 004-39E, altitude: 279 m

Observation

Le bulletin a été fait il y a 24 minutes, à 10:55 UTC
Vent 12 kt de sud/sud-ouest
Température 5°C
Humidité 70%
Pression 1020 hPa
Visibilité 10 km ou plus
Quelques nuages à une hauteur de 1500 ft
Nuages fragmentés à une hauteur de 21000 ft

METAR: EBFS 251055Z 20012KT 9999 FEW015 BKN210 05/00 Q1020 BLU

Heure: 12:19 (11:19 UTC)

Prévision

Le bulletin a été fait il y a 2 heures et 38 minutes, à 08:41 UTC
Prévision valable du 25 à 10 UTC au 25 à 19 UTC
Vent 10 kt de sud/sud-ouest
Visibilité 10 km ou plus
Quelques nuages à une hauteur de 2500 ft
Nuages épars à une hauteur de 7000 ft
Nuages fragmentés à une hauteur de 20000 ft

TAF: EBFS 250841Z 2510/2519 20010KT 9999 FEW025 SCT070 BKN200 BY EBWM

Observations et prévisions météorologiques de plus de 4000 aéroports (messages METAR et TAF).

Les stations disponibles sont représentées par des disques jaunes et rouges sur la carte.

Passer la souris dessus pour voir le nom de la station.

Cliquer dessus pour voir les observations et prévisions météorologiques.

Pour changer de carte: cliquez sur les boutons verts avec une croix noire pour zoomer, sur le bouton vert avec un tiret pour effectuer un zoom arrière, ou sur les flèches vertes pour les cartes adjacentes.


METAR-TAF: